sensor_id;sensor_type;location;lat;lon;timestamp;temperature;humidity
1381;DHT22;684;48.342;10.096;2024-03-06T00:00:14;7.90;25.80
1381;DHT22;684;48.342;10.096;2024-03-06T00:02:40;7.80;25.90
1381;DHT22;684;48.342;10.096;2024-03-06T00:05:07;7.90;26.00
1381;DHT22;684;48.342;10.096;2024-03-06T00:07:34;7.90;26.00
1381;DHT22;684;48.342;10.096;2024-03-06T00:10:01;7.90;25.80
1381;DHT22;684;48.342;10.096;2024-03-06T00:12:30;7.90;26.00
1381;DHT22;684;48.342;10.096;2024-03-06T00:14:58;7.90;25.70
1381;DHT22;684;48.342;10.096;2024-03-06T00:17:25;7.90;25.90
1381;DHT22;684;48.342;10.096;2024-03-06T00:19:52;7.90;26.10
1381;DHT22;684;48.342;10.096;2024-03-06T00:22:19;7.90;26.00
1381;DHT22;684;48.342;10.096;2024-03-06T00:24:45;7.90;25.90
1381;DHT22;684;48.342;10.096;2024-03-06T00:27:14;7.90;25.90
1381;DHT22;684;48.342;10.096;2024-03-06T00:29:40;7.90;25.80
1381;DHT22;684;48.342;10.096;2024-03-06T00:32:08;7.90;25.80
1381;DHT22;684;48.342;10.096;2024-03-06T00:34:35;8.00;25.70
1381;DHT22;684;48.342;10.096;2024-03-06T00:37:02;8.00;25.50
1381;DHT22;684;48.342;10.096;2024-03-06T00:39:29;8.00;25.60
1381;DHT22;684;48.342;10.096;2024-03-06T00:41:56;8.00;25.50
1381;DHT22;684;48.342;10.096;2024-03-06T00:44:22;8.00;25.60
1381;DHT22;684;48.342;10.096;2024-03-06T00:46:49;8.00;25.50
1381;DHT22;684;48.342;10.096;2024-03-06T00:49:17;8.00;26.10
1381;DHT22;684;48.342;10.096;2024-03-06T00:51:44;8.00;25.40
1381;DHT22;684;48.342;10.096;2024-03-06T00:54:11;8.00;25.40
1381;DHT22;684;48.342;10.096;2024-03-06T00:56:38;8.00;25.50
1381;DHT22;684;48.342;10.096;2024-03-06T00:59:05;8.00;25.60
1381;DHT22;684;48.342;10.096;2024-03-06T01:01:32;8.00;25.50
1381;DHT22;684;48.342;10.096;2024-03-06T01:03:59;8.00;25.60
1381;DHT22;684;48.342;10.096;2024-03-06T01:06:27;8.00;25.50
1381;DHT22;684;48.342;10.096;2024-03-06T01:08:54;7.90;25.50
1381;DHT22;684;48.342;10.096;2024-03-06T01:11:22;7.90;25.70
1381;DHT22;684;48.342;10.096;2024-03-06T01:13:49;8.00;25.50
1381;DHT22;684;48.342;10.096;2024-03-06T01:16:16;7.90;25.50
1381;DHT22;684;48.342;10.096;2024-03-06T01:18:42;7.90;25.50
1381;DHT22;684;48.342;10.096;2024-03-06T01:21:09;7.90;25.40
1381;DHT22;684;48.342;10.096;2024-03-06T01:23:37;7.90;25.40
1381;DHT22;684;48.342;10.096;2024-03-06T01:26:04;8.00;25.50
1381;DHT22;684;48.342;10.096;2024-03-06T01:28:31;8.00;25.30
1381;DHT22;684;48.342;10.096;2024-03-06T01:30:58;8.00;25.30
1381;DHT22;684;48.342;10.096;2024-03-06T01:33:25;8.00;25.40
1381;DHT22;684;48.342;10.096;2024-03-06T01:35:52;8.00;25.20
1381;DHT22;684;48.342;10.096;2024-03-06T01:38:18;8.00;25.30
1381;DHT22;684;48.342;10.096;2024-03-06T01:40:46;8.00;25.20
1381;DHT22;684;48.342;10.096;2024-03-06T01:43:20;8.00;25.40
1381;DHT22;684;48.342;10.096;2024-03-06T01:45:47;7.90;25.40
1381;DHT22;684;48.342;10.096;2024-03-06T01:48:15;8.00;25.20
1381;DHT22;684;48.342;10.096;2024-03-06T01:50:42;8.00;25.20
1381;DHT22;684;48.342;10.096;2024-03-06T01:53:09;8.00;25.90
1381;DHT22;684;48.342;10.096;2024-03-06T01:55:37;8.00;25.30
1381;DHT22;684;48.342;10.096;2024-03-06T01:58:05;8.00;25.30
1381;DHT22;684;48.342;10.096;2024-03-06T02:00:33;8.00;25.40
1381;DHT22;684;48.342;10.096;2024-03-06T02:03:00;8.00;25.10
1381;DHT22;684;48.342;10.096;2024-03-06T02:05:28;8.00;25.10
1381;DHT22;684;48.342;10.096;2024-03-06T02:07:57;8.00;25.40
1381;DHT22;684;48.342;10.096;2024-03-06T02:10:25;8.00;25.20
1381;DHT22;684;48.342;10.096;2024-03-06T02:12:52;8.00;25.10
1381;DHT22;684;48.342;10.096;2024-03-06T02:15:21;8.00;25.10
1381;DHT22;684;48.342;10.096;2024-03-06T02:17:48;8.00;25.30
1381;DHT22;684;48.342;10.096;2024-03-06T02:20:15;8.00;25.10
1381;DHT22;684;48.342;10.096;2024-03-06T02:22:43;8.00;25.10
1381;DHT22;684;48.342;10.096;2024-03-06T02:25:11;8.00;25.30
1381;DHT22;684;48.342;10.096;2024-03-06T02:27:38;8.00;25.20
1381;DHT22;684;48.342;10.096;2024-03-06T02:30:06;8.00;25.20
1381;DHT22;684;48.342;10.096;2024-03-06T02:32:33;8.00;25.40
1381;DHT22;684;48.342;10.096;2024-03-06T02:35:00;8.00;25.40
1381;DHT22;684;48.342;10.096;2024-03-06T02:37:28;8.00;25.40
1381;DHT22;684;48.342;10.096;2024-03-06T02:39:56;8.00;25.30
1381;DHT22;684;48.342;10.096;2024-03-06T02:42:25;7.90;25.50
1381;DHT22;684;48.342;10.096;2024-03-06T02:44:52;7.90;25.50
1381;DHT22;684;48.342;10.096;2024-03-06T02:47:19;8.00;25.40
1381;DHT22;684;48.342;10.096;2024-03-06T02:49:46;7.90;25.40
1381;DHT22;684;48.342;10.096;2024-03-06T02:52:13;7.90;25.50
1381;DHT22;684;48.342;10.096;2024-03-06T02:54:40;7.90;25.50
1381;DHT22;684;48.342;10.096;2024-03-06T02:57:09;7.90;25.50
1381;DHT22;684;48.342;10.096;2024-03-06T02:59:35;7.90;25.60
1381;DHT22;684;48.342;10.096;2024-03-06T03:02:02;7.90;25.60
1381;DHT22;684;48.342;10.096;2024-03-06T03:04:29;7.90;25.50
1381;DHT22;684;48.342;10.096;2024-03-06T03:06:57;7.90;25.50
1381;DHT22;684;48.342;10.096;2024-03-06T03:09:24;7.90;25.50
1381;DHT22;684;48.342;10.096;2024-03-06T03:11:50;7.90;25.40
1381;DHT22;684;48.342;10.096;2024-03-06T03:14:19;7.90;25.60
1381;DHT22;684;48.342;10.096;2024-03-06T03:16:45;7.90;25.30
1381;DHT22;684;48.342;10.096;2024-03-06T03:19:12;7.90;25.30
1381;DHT22;684;48.342;10.096;2024-03-06T03:21:42;7.90;25.30
1381;DHT22;684;48.342;10.096;2024-03-06T03:24:09;7.90;25.40
1381;DHT22;684;48.342;10.096;2024-03-06T03:26:36;7.90;25.50
1381;DHT22;684;48.342;10.096;2024-03-06T03:29:03;7.90;25.50
1381;DHT22;684;48.342;10.096;2024-03-06T03:31:31;7.90;25.40
1381;DHT22;684;48.342;10.096;2024-03-06T03:33:58;7.90;25.50
1381;DHT22;684;48.342;10.096;2024-03-06T03:36:25;7.90;25.60
1381;DHT22;684;48.342;10.096;2024-03-06T03:38:52;7.90;25.50
1381;DHT22;684;48.342;10.096;2024-03-06T03:41:19;7.90;25.40
1381;DHT22;684;48.342;10.096;2024-03-06T03:43:46;7.90;25.30
1381;DHT22;684;48.342;10.096;2024-03-06T03:46:13;7.90;25.40
1381;DHT22;684;48.342;10.096;2024-03-06T03:48:41;7.80;25.10
1381;DHT22;684;48.342;10.096;2024-03-06T03:51:08;7.80;25.20
1381;DHT22;684;48.342;10.096;2024-03-06T03:53:35;7.80;25.40
1381;DHT22;684;48.342;10.096;2024-03-06T03:56:03;7.80;25.40
1381;DHT22;684;48.342;10.096;2024-03-06T03:58:29;7.70;25.40
1381;DHT22;684;48.342;10.096;2024-03-06T04:00:56;7.70;25.40
1381;DHT22;684;48.342;10.096;2024-03-06T04:03:23;7.70;25.20
1381;DHT22;684;48.342;10.096;2024-03-06T04:05:51;7.70;25.20
1381;DHT22;684;48.342;10.096;2024-03-06T04:08:18;7.70;25.00
1381;DHT22;684;48.342;10.096;2024-03-06T04:10:45;7.70;25.30
1381;DHT22;684;48.342;10.096;2024-03-06T04:13:12;7.60;25.10
1381;DHT22;684;48.342;10.096;2024-03-06T04:15:39;7.60;24.40
1381;DHT22;684;48.342;10.096;2024-03-06T04:18:06;7.50;24.70
1381;DHT22;684;48.342;10.096;2024-03-06T04:20:33;7.50;25.10
1381;DHT22;684;48.342;10.096;2024-03-06T04:23:01;7.50;25.10
1381;DHT22;684;48.342;10.096;2024-03-06T04:25:28;7.50;25.20
1381;DHT22;684;48.342;10.096;2024-03-06T04:27:55;7.40;25.50
1381;DHT22;684;48.342;10.096;2024-03-06T04:32:54;7.40;25.20
1381;DHT22;684;48.342;10.096;2024-03-06T04:35:21;7.40;25.20
1381;DHT22;684;48.342;10.096;2024-03-06T04:37:48;7.40;25.30
1381;DHT22;684;48.342;10.096;2024-03-06T04:40:16;7.40;25.30
1381;DHT22;684;48.342;10.096;2024-03-06T04:42:45;7.40;25.20
1381;DHT22;684;48.342;10.096;2024-03-06T04:45:15;7.40;25.60
1381;DHT22;684;48.342;10.096;2024-03-06T04:47:42;7.30;25.60
1381;DHT22;684;48.342;10.096;2024-03-06T04:50:10;7.30;25.50
1381;DHT22;684;48.342;10.096;2024-03-06T04:52:37;7.40;24.60
1381;DHT22;684;48.342;10.096;2024-03-06T04:55:04;7.40;24.40
1381;DHT22;684;48.342;10.096;2024-03-06T04:57:33;7.30;24.70
1381;DHT22;684;48.342;10.096;2024-03-06T05:00:00;7.30;25.00
1381;DHT22;684;48.342;10.096;2024-03-06T05:02:31;7.30;25.20
1381;DHT22;684;48.342;10.096;2024-03-06T05:04:59;7.30;24.90
1381;DHT22;684;48.342;10.096;2024-03-06T05:07:28;7.30;24.50
1381;DHT22;684;48.342;10.096;2024-03-06T05:09:55;7.30;24.80
1381;DHT22;684;48.342;10.096;2024-03-06T05:12:22;7.30;24.70
1381;DHT22;684;48.342;10.096;2024-03-06T05:14:50;7.30;25.00
1381;DHT22;684;48.342;10.096;2024-03-06T05:17:17;7.30;25.10
1381;DHT22;684;48.342;10.096;2024-03-06T05:19:45;7.30;25.20
1381;DHT22;684;48.342;10.096;2024-03-06T05:22:13;7.20;25.20
1381;DHT22;684;48.342;10.096;2024-03-06T05:24:40;7.30;25.20
1381;DHT22;684;48.342;10.096;2024-03-06T05:27:07;7.30;25.30
1381;DHT22;684;48.342;10.096;2024-03-06T05:29:35;7.30;25.30
1381;DHT22;684;48.342;10.096;2024-03-06T05:32:03;7.20;25.50
1381;DHT22;684;48.342;10.096;2024-03-06T05:34:30;7.30;25.50
1381;DHT22;684;48.342;10.096;2024-03-06T05:36:57;7.20;25.60
1381;DHT22;684;48.342;10.096;2024-03-06T05:39:23;7.20;25.70
1381;DHT22;684;48.342;10.096;2024-03-06T05:41:50;7.30;25.50
1381;DHT22;684;48.342;10.096;2024-03-06T05:44:18;7.30;25.50
1381;DHT22;684;48.342;10.096;2024-03-06T05:46:45;7.30;25.50
1381;DHT22;684;48.342;10.096;2024-03-06T05:49:13;7.20;25.40
1381;DHT22;684;48.342;10.096;2024-03-06T05:51:40;7.20;25.50
1381;DHT22;684;48.342;10.096;2024-03-06T05:54:07;7.20;25.60
1381;DHT22;684;48.342;10.096;2024-03-06T05:56:34;7.20;25.70
1381;DHT22;684;48.342;10.096;2024-03-06T05:59:01;7.20;26.40
1381;DHT22;684;48.342;10.096;2024-03-06T06:01:30;7.20;25.80
1381;DHT22;684;48.342;10.096;2024-03-06T06:03:57;7.20;26.00
1381;DHT22;684;48.342;10.096;2024-03-06T06:06:25;7.20;25.90
1381;DHT22;684;48.342;10.096;2024-03-06T06:08:52;7.20;25.90
1381;DHT22;684;48.342;10.096;2024-03-06T06:11:19;7.30;25.70
1381;DHT22;684;48.342;10.096;2024-03-06T06:13:46;7.30;25.70
1381;DHT22;684;48.342;10.096;2024-03-06T06:16:12;7.20;25.70
1381;DHT22;684;48.342;10.096;2024-03-06T06:18:40;7.20;25.90
1381;DHT22;684;48.342;10.096;2024-03-06T06:21:08;7.20;26.00
1381;DHT22;684;48.342;10.096;2024-03-06T06:23:36;7.20;26.10
1381;DHT22;684;48.342;10.096;2024-03-06T06:26:03;7.30;26.00
1381;DHT22;684;48.342;10.096;2024-03-06T06:28:30;7.20;26.00
1381;DHT22;684;48.342;10.096;2024-03-06T06:30:57;7.20;26.10
1381;DHT22;684;48.342;10.096;2024-03-06T06:33:24;7.20;26.10
1381;DHT22;684;48.342;10.096;2024-03-06T06:35:50;7.20;26.10
1381;DHT22;684;48.342;10.096;2024-03-06T06:38:17;7.20;26.00
1381;DHT22;684;48.342;10.096;2024-03-06T06:40:47;7.20;26.10
1381;DHT22;684;48.342;10.096;2024-03-06T06:43:13;7.20;26.10
1381;DHT22;684;48.342;10.096;2024-03-06T06:45:40;7.20;26.00
1381;DHT22;684;48.342;10.096;2024-03-06T06:48:07;7.10;26.10
1381;DHT22;684;48.342;10.096;2024-03-06T06:50:35;7.10;26.20
1381;DHT22;684;48.342;10.096;2024-03-06T06:53:02;7.10;26.40
1381;DHT22;684;48.342;10.096;2024-03-06T06:55:29;7.10;26.70
1381;DHT22;684;48.342;10.096;2024-03-06T06:57:57;7.10;26.60
1381;DHT22;684;48.342;10.096;2024-03-06T07:00:24;7.10;26.50
1381;DHT22;684;48.342;10.096;2024-03-06T07:02:51;7.10;26.50
1381;DHT22;684;48.342;10.096;2024-03-06T07:05:19;7.10;26.20
1381;DHT22;684;48.342;10.096;2024-03-06T07:07:45;7.10;26.40
1381;DHT22;684;48.342;10.096;2024-03-06T07:10:12;7.10;26.50
1381;DHT22;684;48.342;10.096;2024-03-06T07:12:39;7.10;26.60
1381;DHT22;684;48.342;10.096;2024-03-06T07:15:08;7.10;26.60
1381;DHT22;684;48.342;10.096;2024-03-06T07:17:35;7.10;26.80
1381;DHT22;684;48.342;10.096;2024-03-06T07:20:02;7.10;26.70
1381;DHT22;684;48.342;10.096;2024-03-06T07:22:30;7.10;26.90
1381;DHT22;684;48.342;10.096;2024-03-06T07:24:59;7.10;26.60
1381;DHT22;684;48.342;10.096;2024-03-06T07:27:26;7.10;26.80
1381;DHT22;684;48.342;10.096;2024-03-06T07:29:53;7.10;26.70
1381;DHT22;684;48.342;10.096;2024-03-06T07:32:21;7.10;26.80
1381;DHT22;684;48.342;10.096;2024-03-06T07:34:47;7.10;26.60
1381;DHT22;684;48.342;10.096;2024-03-06T07:37:14;7.10;26.90
1381;DHT22;684;48.342;10.096;2024-03-06T07:39:40;7.10;27.10
1381;DHT22;684;48.342;10.096;2024-03-06T07:42:07;7.10;27.00
1381;DHT22;684;48.342;10.096;2024-03-06T07:44:36;7.10;26.80
1381;DHT22;684;48.342;10.096;2024-03-06T07:47:03;7.10;26.90
1381;DHT22;684;48.342;10.096;2024-03-06T07:49:31;7.10;27.00
1381;DHT22;684;48.342;10.096;2024-03-06T07:51:58;7.20;26.60
1381;DHT22;684;48.342;10.096;2024-03-06T07:54:25;7.30;26.40
1381;DHT22;684;48.342;10.096;2024-03-06T07:56:51;7.30;26.40
1381;DHT22;684;48.342;10.096;2024-03-06T07:59:19;7.40;26.20
1381;DHT22;684;48.342;10.096;2024-03-06T08:01:46;7.40;26.10
1381;DHT22;684;48.342;10.096;2024-03-06T08:04:13;7.40;26.10
1381;DHT22;684;48.342;10.096;2024-03-06T08:06:41;7.40;26.80
1381;DHT22;684;48.342;10.096;2024-03-06T08:09:08;7.50;25.80
1381;DHT22;684;48.342;10.096;2024-03-06T08:11:35;7.50;25.90
1381;DHT22;684;48.342;10.096;2024-03-06T08:14:02;7.50;26.00
1381;DHT22;684;48.342;10.096;2024-03-06T08:16:29;7.50;26.10
1381;DHT22;684;48.342;10.096;2024-03-06T08:18:56;7.50;26.20
1381;DHT22;684;48.342;10.096;2024-03-06T08:21:24;7.40;26.30
1381;DHT22;684;48.342;10.096;2024-03-06T08:23:53;7.50;26.40
1381;DHT22;684;48.342;10.096;2024-03-06T08:26:19;7.50;26.30
1381;DHT22;684;48.342;10.096;2024-03-06T08:28:46;7.50;26.20
1381;DHT22;684;48.342;10.096;2024-03-06T08:31:14;7.60;26.10
1381;DHT22;684;48.342;10.096;2024-03-06T08:33:41;7.60;25.70
1381;DHT22;684;48.342;10.096;2024-03-06T08:36:08;7.60;25.70
1381;DHT22;684;48.342;10.096;2024-03-06T08:38:35;7.60;26.10
1381;DHT22;684;48.342;10.096;2024-03-06T08:41:04;7.60;25.90
1381;DHT22;684;48.342;10.096;2024-03-06T08:43:31;7.60;25.90
1381;DHT22;684;48.342;10.096;2024-03-06T08:45:58;7.70;26.00
1381;DHT22;684;48.342;10.096;2024-03-06T08:48:25;7.70;26.10
1381;DHT22;684;48.342;10.096;2024-03-06T08:50:52;7.70;26.10
1381;DHT22;684;48.342;10.096;2024-03-06T08:53:19;7.70;25.90
1381;DHT22;684;48.342;10.096;2024-03-06T08:55:46;7.80;25.80
1381;DHT22;684;48.342;10.096;2024-03-06T08:58:14;7.80;25.90
1381;DHT22;684;48.342;10.096;2024-03-06T09:00:41;7.80;26.10
1381;DHT22;684;48.342;10.096;2024-03-06T09:03:07;7.80;26.10
1381;DHT22;684;48.342;10.096;2024-03-06T09:05:34;7.80;25.80
1381;DHT22;684;48.342;10.096;2024-03-06T09:08:01;7.90;26.00
1381;DHT22;684;48.342;10.096;2024-03-06T09:10:28;7.90;25.90
1381;DHT22;684;48.342;10.096;2024-03-06T09:12:55;7.90;25.80
1381;DHT22;684;48.342;10.096;2024-03-06T09:15:23;8.00;25.90
1381;DHT22;684;48.342;10.096;2024-03-06T09:17:51;8.00;25.80
1381;DHT22;684;48.342;10.096;2024-03-06T09:20:18;8.00;25.60
1381;DHT22;684;48.342;10.096;2024-03-06T09:22:44;8.10;25.70
1381;DHT22;684;48.342;10.096;2024-03-06T09:25:12;8.10;25.40
1381;DHT22;684;48.342;10.096;2024-03-06T09:27:40;8.20;25.40
1381;DHT22;684;48.342;10.096;2024-03-06T09:30:08;8.10;25.50
1381;DHT22;684;48.342;10.096;2024-03-06T09:32:37;8.20;25.20
1381;DHT22;684;48.342;10.096;2024-03-06T09:35:07;8.20;25.10
1381;DHT22;684;48.342;10.096;2024-03-06T09:37:33;8.30;25.30
1381;DHT22;684;48.342;10.096;2024-03-06T09:40:00;8.30;25.40
1381;DHT22;684;48.342;10.096;2024-03-06T09:42:28;8.30;25.50
1381;DHT22;684;48.342;10.096;2024-03-06T09:44:55;8.40;24.90
1381;DHT22;684;48.342;10.096;2024-03-06T09:47:22;8.50;25.00
1381;DHT22;684;48.342;10.096;2024-03-06T09:49:52;8.50;24.70
1381;DHT22;684;48.342;10.096;2024-03-06T09:52:20;8.50;24.70
1381;DHT22;684;48.342;10.096;2024-03-06T09:54:47;8.60;24.60
1381;DHT22;684;48.342;10.096;2024-03-06T09:57:14;8.60;24.60
1381;DHT22;684;48.342;10.096;2024-03-06T09:59:42;8.60;24.70
1381;DHT22;684;48.342;10.096;2024-03-06T10:02:18;8.60;24.60
1381;DHT22;684;48.342;10.096;2024-03-06T10:04:53;8.70;24.30
1381;DHT22;684;48.342;10.096;2024-03-06T10:07:20;8.60;24.20
1381;DHT22;684;48.342;10.096;2024-03-06T10:09:47;8.60;24.00
1381;DHT22;684;48.342;10.096;2024-03-06T10:12:17;8.50;24.50
1381;DHT22;684;48.342;10.096;2024-03-06T10:14:49;8.50;24.70
1381;DHT22;684;48.342;10.096;2024-03-06T10:17:19;8.60;24.50
1381;DHT22;684;48.342;10.096;2024-03-06T10:19:48;8.50;24.90
1381;DHT22;684;48.342;10.096;2024-03-06T10:22:18;8.60;24.30
1381;DHT22;684;48.342;10.096;2024-03-06T10:24:45;8.60;25.00
1381;DHT22;684;48.342;10.096;2024-03-06T10:27:14;8.60;24.20
1381;DHT22;684;48.342;10.096;2024-03-06T10:29:43;8.60;23.90
1381;DHT22;684;48.342;10.096;2024-03-06T10:32:09;8.70;24.00
1381;DHT22;684;48.342;10.096;2024-03-06T10:34:37;8.70;24.10
1381;DHT22;684;48.342;10.096;2024-03-06T10:37:06;8.70;24.20
1381;DHT22;684;48.342;10.096;2024-03-06T10:39:34;8.70;24.30
1381;DHT22;684;48.342;10.096;2024-03-06T10:42:07;8.90;24.10
1381;DHT22;684;48.342;10.096;2024-03-06T10:44:34;8.80;24.00
1381;DHT22;684;48.342;10.096;2024-03-06T10:47:05;8.70;24.10
1381;DHT22;684;48.342;10.096;2024-03-06T10:49:32;8.80;24.20
1381;DHT22;684;48.342;10.096;2024-03-06T10:52:00;8.80;24.30
1381;DHT22;684;48.342;10.096;2024-03-06T10:54:28;8.80;24.20
1381;DHT22;684;48.342;10.096;2024-03-06T10:56:57;8.80;24.20
1381;DHT22;684;48.342;10.096;2024-03-06T10:59:25;8.80;24.10
1381;DHT22;684;48.342;10.096;2024-03-06T11:01:54;8.80;24.30
1381;DHT22;684;48.342;10.096;2024-03-06T11:04:22;8.80;24.40
1381;DHT22;684;48.342;10.096;2024-03-06T11:06:49;8.80;24.60
1381;DHT22;684;48.342;10.096;2024-03-06T11:09:16;8.80;24.80
1381;DHT22;684;48.342;10.096;2024-03-06T11:11:49;8.90;25.00
1381;DHT22;684;48.342;10.096;2024-03-06T11:14:18;8.90;24.80
1381;DHT22;684;48.342;10.096;2024-03-06T11:16:58;8.90;25.00
1381;DHT22;684;48.342;10.096;2024-03-06T11:19:25;8.90;25.20
1381;DHT22;684;48.342;10.096;2024-03-06T11:21:52;8.90;25.30
1381;DHT22;684;48.342;10.096;2024-03-06T11:24:20;9.00;24.90
1381;DHT22;684;48.342;10.096;2024-03-06T11:26:55;9.00;24.80
1381;DHT22;684;48.342;10.096;2024-03-06T11:29:28;9.10;24.80
1381;DHT22;684;48.342;10.096;2024-03-06T11:32:03;9.10;25.20
1381;DHT22;684;48.342;10.096;2024-03-06T11:34:32;9.20;25.30
1381;DHT22;684;48.342;10.096;2024-03-06T11:36:59;9.20;25.10
1381;DHT22;684;48.342;10.096;2024-03-06T11:39:28;9.30;25.00
1381;DHT22;684;48.342;10.096;2024-03-06T11:41:56;9.40;24.70
1381;DHT22;684;48.342;10.096;2024-03-06T11:44:27;9.40;24.70
1381;DHT22;684;48.342;10.096;2024-03-06T11:46:58;9.40;24.70
1381;DHT22;684;48.342;10.096;2024-03-06T11:49:26;9.50;24.60
1381;DHT22;684;48.342;10.096;2024-03-06T11:51:55;9.40;25.20
1381;DHT22;684;48.342;10.096;2024-03-06T11:54:23;9.40;24.60
1381;DHT22;684;48.342;10.096;2024-03-06T11:56:54;9.40;24.80
1381;DHT22;684;48.342;10.096;2024-03-06T11:59:21;9.30;24.80
1381;DHT22;684;48.342;10.096;2024-03-06T12:01:50;9.30;24.90
1381;DHT22;684;48.342;10.096;2024-03-06T12:04:19;9.20;25.00
1381;DHT22;684;48.342;10.096;2024-03-06T12:06:46;9.20;25.00
1381;DHT22;684;48.342;10.096;2024-03-06T12:09:13;9.20;24.90
1381;DHT22;684;48.342;10.096;2024-03-06T12:11:41;9.20;24.70
1381;DHT22;684;48.342;10.096;2024-03-06T12:14:13;9.20;25.10
1381;DHT22;684;48.342;10.096;2024-03-06T12:16:40;9.10;25.10
1381;DHT22;684;48.342;10.096;2024-03-06T12:19:08;9.00;25.10
1381;DHT22;684;48.342;10.096;2024-03-06T12:21:36;9.00;25.30
1381;DHT22;684;48.342;10.096;2024-03-06T12:24:04;9.00;25.50
1381;DHT22;684;48.342;10.096;2024-03-06T12:26:30;9.00;25.60
1381;DHT22;684;48.342;10.096;2024-03-06T12:29:04;9.00;25.60
1381;DHT22;684;48.342;10.096;2024-03-06T12:31:32;9.10;25.90
1381;DHT22;684;48.342;10.096;2024-03-06T12:33:59;9.20;25.90
1381;DHT22;684;48.342;10.096;2024-03-06T12:36:29;9.20;25.90
1381;DHT22;684;48.342;10.096;2024-03-06T12:38:58;9.20;26.00
1381;DHT22;684;48.342;10.096;2024-03-06T12:41:25;9.20;26.00
1381;DHT22;684;48.342;10.096;2024-03-06T12:43:53;9.20;26.30
1381;DHT22;684;48.342;10.096;2024-03-06T12:46:21;9.10;26.20
1381;DHT22;684;48.342;10.096;2024-03-06T12:48:48;9.20;26.10
1381;DHT22;684;48.342;10.096;2024-03-06T12:51:15;9.10;26.20
1381;DHT22;684;48.342;10.096;2024-03-06T12:53:43;9.10;26.40
1381;DHT22;684;48.342;10.096;2024-03-06T12:56:10;9.00;26.40
1381;DHT22;684;48.342;10.096;2024-03-06T12:58:37;9.00;26.50
1381;DHT22;684;48.342;10.096;2024-03-06T13:01:04;9.00;26.70
1381;DHT22;684;48.342;10.096;2024-03-06T13:03:31;8.90;26.60
1381;DHT22;684;48.342;10.096;2024-03-06T13:05:58;8.90;26.30
1381;DHT22;684;48.342;10.096;2024-03-06T13:08:25;8.80;26.50
1381;DHT22;684;48.342;10.096;2024-03-06T13:10:53;8.80;26.80
1381;DHT22;684;48.342;10.096;2024-03-06T13:13:21;8.70;26.70
1381;DHT22;684;48.342;10.096;2024-03-06T13:15:50;8.70;26.60
1381;DHT22;684;48.342;10.096;2024-03-06T13:18:17;8.70;26.40
1381;DHT22;684;48.342;10.096;2024-03-06T13:20:44;8.60;26.10
1381;DHT22;684;48.342;10.096;2024-03-06T13:23:11;8.60;26.10
1381;DHT22;684;48.342;10.096;2024-03-06T13:25:37;8.50;25.80
1381;DHT22;684;48.342;10.096;2024-03-06T13:28:06;8.50;25.90
1381;DHT22;684;48.342;10.096;2024-03-06T13:30:34;8.50;25.90
1381;DHT22;684;48.342;10.096;2024-03-06T13:33:01;8.50;25.90
1381;DHT22;684;48.342;10.096;2024-03-06T13:35:28;8.60;26.00
1381;DHT22;684;48.342;10.096;2024-03-06T13:37:54;8.70;26.00
1381;DHT22;684;48.342;10.096;2024-03-06T13:40:21;8.70;26.00
1381;DHT22;684;48.342;10.096;2024-03-06T13:42:48;8.70;25.90
1381;DHT22;684;48.342;10.096;2024-03-06T13:45:16;8.70;25.60
1381;DHT22;684;48.342;10.096;2024-03-06T13:47:44;8.80;25.70
1381;DHT22;684;48.342;10.096;2024-03-06T13:50:12;8.80;25.60
1381;DHT22;684;48.342;10.096;2024-03-06T13:52:39;8.90;25.60
1381;DHT22;684;48.342;10.096;2024-03-06T13:55:07;9.00;25.40
1381;DHT22;684;48.342;10.096;2024-03-06T13:57:34;9.10;25.30
1381;DHT22;684;48.342;10.096;2024-03-06T14:00:01;9.20;25.00
1381;DHT22;684;48.342;10.096;2024-03-06T14:02:32;9.30;25.00
1381;DHT22;684;48.342;10.096;2024-03-06T14:04:59;9.30;25.00
1381;DHT22;684;48.342;10.096;2024-03-06T14:07:26;9.30;24.90
1381;DHT22;684;48.342;10.096;2024-03-06T14:09:53;9.30;24.80
1381;DHT22;684;48.342;10.096;2024-03-06T14:12:22;9.30;25.10
1381;DHT22;684;48.342;10.096;2024-03-06T14:14:49;9.30;25.00
1381;DHT22;684;48.342;10.096;2024-03-06T14:17:16;9.30;24.90
1381;DHT22;684;48.342;10.096;2024-03-06T14:19:44;9.30;25.00
1381;DHT22;684;48.342;10.096;2024-03-06T14:22:11;9.40;25.10
1381;DHT22;684;48.342;10.096;2024-03-06T14:24:38;9.60;25.20
1381;DHT22;684;48.342;10.096;2024-03-06T14:27:05;9.60;25.00
1381;DHT22;684;48.342;10.096;2024-03-06T14:29:32;9.70;24.80
1381;DHT22;684;48.342;10.096;2024-03-06T14:31:59;9.70;24.40
1381;DHT22;684;48.342;10.096;2024-03-06T14:34:26;9.70;24.50
1381;DHT22;684;48.342;10.096;2024-03-06T14:36:54;9.80;24.60
1381;DHT22;684;48.342;10.096;2024-03-06T14:39:21;9.70;24.60
1381;DHT22;684;48.342;10.096;2024-03-06T14:41:49;9.70;24.80
1381;DHT22;684;48.342;10.096;2024-03-06T14:44:16;9.70;25.20
1381;DHT22;684;48.342;10.096;2024-03-06T14:46:43;9.70;25.30
1381;DHT22;684;48.342;10.096;2024-03-06T14:49:10;9.80;25.10
1381;DHT22;684;48.342;10.096;2024-03-06T14:51:37;9.80;25.00
1381;DHT22;684;48.342;10.096;2024-03-06T14:54:05;9.80;25.00
1381;DHT22;684;48.342;10.096;2024-03-06T14:56:32;9.80;25.10
1381;DHT22;684;48.342;10.096;2024-03-06T14:58:59;9.80;25.30
1381;DHT22;684;48.342;10.096;2024-03-06T15:01:26;9.80;25.10
1381;DHT22;684;48.342;10.096;2024-03-06T15:03:53;9.80;24.80
1381;DHT22;684;48.342;10.096;2024-03-06T15:06:20;9.80;25.80
1381;DHT22;684;48.342;10.096;2024-03-06T15:08:48;9.80;25.00
1381;DHT22;684;48.342;10.096;2024-03-06T15:11:16;9.70;24.70
1381;DHT22;684;48.342;10.096;2024-03-06T15:13:43;9.70;24.70
1381;DHT22;684;48.342;10.096;2024-03-06T15:16:10;9.70;25.20
1381;DHT22;684;48.342;10.096;2024-03-06T15:18:38;9.60;25.10
1381;DHT22;684;48.342;10.096;2024-03-06T15:21:06;9.60;25.40
1381;DHT22;684;48.342;10.096;2024-03-06T15:23:34;9.60;26.20
1381;DHT22;684;48.342;10.096;2024-03-06T15:26:01;9.50;25.40
1381;DHT22;684;48.342;10.096;2024-03-06T15:28:29;9.50;25.90
1381;DHT22;684;48.342;10.096;2024-03-06T15:30:56;9.50;26.10
1381;DHT22;684;48.342;10.096;2024-03-06T15:33:23;9.50;26.10
1381;DHT22;684;48.342;10.096;2024-03-06T15:35:51;9.50;26.10
1381;DHT22;684;48.342;10.096;2024-03-06T15:38:18;9.40;26.00
1381;DHT22;684;48.342;10.096;2024-03-06T15:40:46;9.40;26.20
1381;DHT22;684;48.342;10.096;2024-03-06T15:43:16;9.40;26.30
1381;DHT22;684;48.342;10.096;2024-03-06T15:45:45;9.40;26.30
1381;DHT22;684;48.342;10.096;2024-03-06T15:48:12;9.40;26.10
1381;DHT22;684;48.342;10.096;2024-03-06T15:50:40;9.40;26.20
1381;DHT22;684;48.342;10.096;2024-03-06T15:53:07;9.30;26.30
1381;DHT22;684;48.342;10.096;2024-03-06T15:55:34;9.30;26.30
1381;DHT22;684;48.342;10.096;2024-03-06T15:58:02;9.30;26.30
1381;DHT22;684;48.342;10.096;2024-03-06T16:00:29;9.30;26.30
1381;DHT22;684;48.342;10.096;2024-03-06T16:02:58;9.30;26.20
1381;DHT22;684;48.342;10.096;2024-03-06T16:05:25;9.20;26.30
1381;DHT22;684;48.342;10.096;2024-03-06T16:07:57;9.20;26.20
1381;DHT22;684;48.342;10.096;2024-03-06T16:10:25;9.20;26.30
1381;DHT22;684;48.342;10.096;2024-03-06T16:12:52;9.20;26.30
1381;DHT22;684;48.342;10.096;2024-03-06T16:15:19;9.20;26.30
1381;DHT22;684;48.342;10.096;2024-03-06T16:17:46;9.10;26.40
1381;DHT22;684;48.342;10.096;2024-03-06T16:20:14;9.10;27.10